sensor_id;sensor_type;location;lat;lon;timestamp;P1;durP1;ratioP1;P2;durP2;ratioP2
75486;SDS011;64068;44.762;21.514;2022-10-31T00:00:52;186.13;;;80.97;;
75486;SDS011;64068;44.762;21.514;2022-10-31T00:03:18;174.43;;;75.70;;
75486;SDS011;64068;44.762;21.514;2022-10-31T00:05:47;185.57;;;79.03;;
75486;SDS011;64068;44.762;21.514;2022-10-31T00:08:13;170.67;;;74.33;;
75486;SDS011;64068;44.762;21.514;2022-10-31T00:10:40;183.77;;;77.90;;
75486;SDS011;64068;44.762;21.514;2022-10-31T00:13:07;195.60;;;80.17;;
75486;SDS011;64068;44.762;21.514;2022-10-31T00:15:35;202.47;;;81.13;;
75486;SDS011;64068;44.762;21.514;2022-10-31T00:18:02;209.13;;;76.03;;
75486;SDS011;64068;44.762;21.514;2022-10-31T00:20:28;186.13;;;77.30;;
75486;SDS011;64068;44.762;21.514;2022-10-31T00:22:57;186.40;;;76.87;;
75486;SDS011;64068;44.762;21.514;2022-10-31T00:25:23;184.53;;;77.73;;
75486;SDS011;64068;44.762;21.514;2022-10-31T00:27:49;201.10;;;77.50;;
75486;SDS011;64068;44.762;21.514;2022-10-31T00:30:16;266.50;;;77.80;;
75486;SDS011;64068;44.762;21.514;2022-10-31T00:32:42;183.70;;;76.43;;
75486;SDS011;64068;44.762;21.514;2022-10-31T00:35:08;190.77;;;78.17;;
75486;SDS011;64068;44.762;21.514;2022-10-31T00:37:34;196.63;;;80.40;;
75486;SDS011;64068;44.762;21.514;2022-10-31T00:40:00;200.67;;;82.00;;
75486;SDS011;64068;44.762;21.514;2022-10-31T00:42:26;196.47;;;79.43;;
75486;SDS011;64068;44.762;21.514;2022-10-31T00:44:53;218.63;;;83.20;;
75486;SDS011;64068;44.762;21.514;2022-10-31T00:47:19;195.77;;;80.70;;
75486;SDS011;64068;44.762;21.514;2022-10-31T00:49:45;179.70;;;79.20;;
75486;SDS011;64068;44.762;21.514;2022-10-31T00:52:11;182.87;;;79.73;;
75486;SDS011;64068;44.762;21.514;2022-10-31T00:54:37;242.37;;;79.47;;
75486;SDS011;64068;44.762;21.514;2022-10-31T00:57:03;309.37;;;82.10;;
75486;SDS011;64068;44.762;21.514;2022-10-31T00:59:29;341.83;;;81.97;;
75486;SDS011;64068;44.762;21.514;2022-10-31T01:01:55;199.63;;;80.53;;
75486;SDS011;64068;44.762;21.514;2022-10-31T01:04:22;205.47;;;78.13;;
75486;SDS011;64068;44.762;21.514;2022-10-31T01:06:48;168.13;;;76.20;;
75486;SDS011;64068;44.762;21.514;2022-10-31T01:09:15;227.73;;;78.83;;
75486;SDS011;64068;44.762;21.514;2022-10-31T01:11:41;232.17;;;74.40;;
75486;SDS011;64068;44.762;21.514;2022-10-31T01:14:08;186.47;;;73.77;;
75486;SDS011;64068;44.762;21.514;2022-10-31T01:16:34;167.00;;;71.30;;
75486;SDS011;64068;44.762;21.514;2022-10-31T01:19:00;239.53;;;69.77;;
75486;SDS011;64068;44.762;21.514;2022-10-31T01:21:27;140.03;;;70.53;;
75486;SDS011;64068;44.762;21.514;2022-10-31T01:23:54;182.90;;;71.07;;
75486;SDS011;64068;44.762;21.514;2022-10-31T01:26:24;141.53;;;70.07;;
75486;SDS011;64068;44.762;21.514;2022-10-31T01:28:52;186.73;;;70.10;;
75486;SDS011;64068;44.762;21.514;2022-10-31T01:31:19;160.73;;;70.60;;
75486;SDS011;64068;44.762;21.514;2022-10-31T01:33:46;145.77;;;70.07;;
75486;SDS011;64068;44.762;21.514;2022-10-31T01:36:25;243.20;;;69.83;;
75486;SDS011;64068;44.762;21.514;2022-10-31T01:38:52;271.13;;;68.83;;
75486;SDS011;64068;44.762;21.514;2022-10-31T01:41:20;230.27;;;67.93;;
75486;SDS011;64068;44.762;21.514;2022-10-31T01:43:49;136.17;;;65.47;;
75486;SDS011;64068;44.762;21.514;2022-10-31T01:46:16;119.73;;;61.47;;
75486;SDS011;64068;44.762;21.514;2022-10-31T01:48:43;137.57;;;64.00;;
75486;SDS011;64068;44.762;21.514;2022-10-31T01:51:10;253.33;;;65.77;;
75486;SDS011;64068;44.762;21.514;2022-10-31T01:53:37;192.80;;;67.90;;
75486;SDS011;64068;44.762;21.514;2022-10-31T01:56:04;142.97;;;67.23;;
75486;SDS011;64068;44.762;21.514;2022-10-31T01:58:30;187.43;;;65.87;;
75486;SDS011;64068;44.762;21.514;2022-10-31T02:00:58;267.27;;;64.70;;
75486;SDS011;64068;44.762;21.514;2022-10-31T02:03:25;214.53;;;67.53;;
75486;SDS011;64068;44.762;21.514;2022-10-31T02:05:52;153.80;;;63.80;;
75486;SDS011;64068;44.762;21.514;2022-10-31T02:13:17;145.87;;;64.97;;
75486;SDS011;64068;44.762;21.514;2022-10-31T02:15:45;133.70;;;64.40;;
75486;SDS011;64068;44.762;21.514;2022-10-31T02:18:13;143.57;;;63.17;;
75486;SDS011;64068;44.762;21.514;2022-10-31T02:20:57;146.23;;;65.33;;
75486;SDS011;64068;44.762;21.514;2022-10-31T02:28:47;282.77;;;71.93;;
75486;SDS011;64068;44.762;21.514;2022-10-31T02:33:49;282.93;;;75.87;;
75486;SDS011;64068;44.762;21.514;2022-10-31T02:39:00;234.53;;;69.73;;
75486;SDS011;64068;44.762;21.514;2022-10-31T02:44:02;116.37;;;60.27;;
75486;SDS011;64068;44.762;21.514;2022-10-31T02:48:58;244.07;;;65.13;;
75486;SDS011;64068;44.762;21.514;2022-10-31T02:51:26;178.10;;;61.67;;
75486;SDS011;64068;44.762;21.514;2022-10-31T02:53:53;127.40;;;60.07;;
75486;SDS011;64068;44.762;21.514;2022-10-31T02:56:19;264.20;;;58.17;;
75486;SDS011;64068;44.762;21.514;2022-10-31T02:58:47;277.47;;;58.07;;
75486;SDS011;64068;44.762;21.514;2022-10-31T03:01:20;335.43;;;57.93;;
75486;SDS011;64068;44.762;21.514;2022-10-31T03:08:58;483.60;;;59.23;;
75486;SDS011;64068;44.762;21.514;2022-10-31T03:11:29;452.73;;;58.70;;
75486;SDS011;64068;44.762;21.514;2022-10-31T03:19:03;127.13;;;58.10;;
75486;SDS011;64068;44.762;21.514;2022-10-31T03:21:32;400.40;;;56.63;;
75486;SDS011;64068;44.762;21.514;2022-10-31T03:24:01;531.47;;;58.40;;
75486;SDS011;64068;44.762;21.514;2022-10-31T03:26:28;216.33;;;61.93;;
75486;SDS011;64068;44.762;21.514;2022-10-31T03:28:57;241.23;;;66.03;;
75486;SDS011;64068;44.762;21.514;2022-10-31T03:31:26;392.50;;;66.43;;
75486;SDS011;64068;44.762;21.514;2022-10-31T03:33:54;414.50;;;64.30;;
75486;SDS011;64068;44.762;21.514;2022-10-31T03:36:21;423.77;;;65.33;;
75486;SDS011;64068;44.762;21.514;2022-10-31T03:38:48;431.47;;;69.27;;
75486;SDS011;64068;44.762;21.514;2022-10-31T03:41:16;397.13;;;66.60;;
75486;SDS011;64068;44.762;21.514;2022-10-31T03:43:45;433.63;;;64.60;;
75486;SDS011;64068;44.762;21.514;2022-10-31T03:46:12;441.07;;;71.80;;
75486;SDS011;64068;44.762;21.514;2022-10-31T03:48:38;613.93;;;77.70;;
75486;SDS011;64068;44.762;21.514;2022-10-31T03:51:11;498.57;;;80.90;;
75486;SDS011;64068;44.762;21.514;2022-10-31T03:53:40;469.13;;;96.17;;
75486;SDS011;64068;44.762;21.514;2022-10-31T03:56:12;373.10;;;101.03;;
75486;SDS011;64068;44.762;21.514;2022-10-31T03:58:47;421.23;;;87.07;;
75486;SDS011;64068;44.762;21.514;2022-10-31T04:01:15;542.43;;;103.33;;
75486;SDS011;64068;44.762;21.514;2022-10-31T04:03:42;406.73;;;96.73;;
75486;SDS011;64068;44.762;21.514;2022-10-31T04:06:10;234.83;;;80.87;;
75486;SDS011;64068;44.762;21.514;2022-10-31T04:08:40;424.00;;;89.07;;
75486;SDS011;64068;44.762;21.514;2022-10-31T04:11:07;434.63;;;90.67;;
75486;SDS011;64068;44.762;21.514;2022-10-31T04:13:35;428.67;;;93.33;;
75486;SDS011;64068;44.762;21.514;2022-10-31T04:16:03;336.03;;;71.57;;
75486;SDS011;64068;44.762;21.514;2022-10-31T04:18:29;247.47;;;67.40;;
75486;SDS011;64068;44.762;21.514;2022-10-31T04:20:59;321.07;;;66.67;;
75486;SDS011;64068;44.762;21.514;2022-10-31T04:23:26;259.40;;;66.47;;
75486;SDS011;64068;44.762;21.514;2022-10-31T04:25:52;308.03;;;62.20;;
75486;SDS011;64068;44.762;21.514;2022-10-31T04:28:18;292.37;;;69.77;;
75486;SDS011;64068;44.762;21.514;2022-10-31T04:30:45;226.00;;;65.47;;
75486;SDS011;64068;44.762;21.514;2022-10-31T04:33:11;399.30;;;117.17;;
75486;SDS011;64068;44.762;21.514;2022-10-31T04:35:37;298.67;;;58.93;;
75486;SDS011;64068;44.762;21.514;2022-10-31T04:38:03;249.60;;;60.43;;
75486;SDS011;64068;44.762;21.514;2022-10-31T04:40:29;219.43;;;59.80;;
75486;SDS011;64068;44.762;21.514;2022-10-31T04:42:56;262.13;;;59.47;;
75486;SDS011;64068;44.762;21.514;2022-10-31T04:45:22;250.13;;;65.07;;
75486;SDS011;64068;44.762;21.514;2022-10-31T04:47:48;207.83;;;61.27;;
75486;SDS011;64068;44.762;21.514;2022-10-31T04:50:14;238.67;;;59.33;;
75486;SDS011;64068;44.762;21.514;2022-10-31T04:52:44;234.20;;;58.80;;
75486;SDS011;64068;44.762;21.514;2022-10-31T04:55:10;226.17;;;54.67;;
75486;SDS011;64068;44.762;21.514;2022-10-31T04:57:41;182.17;;;54.73;;
75486;SDS011;64068;44.762;21.514;2022-10-31T05:00:07;213.00;;;53.07;;
75486;SDS011;64068;44.762;21.514;2022-10-31T05:02:34;207.20;;;54.90;;
75486;SDS011;64068;44.762;21.514;2022-10-31T05:05:00;202.30;;;52.87;;
75486;SDS011;64068;44.762;21.514;2022-10-31T05:07:28;245.27;;;56.73;;
75486;SDS011;64068;44.762;21.514;2022-10-31T05:09:54;165.77;;;57.13;;
75486;SDS011;64068;44.762;21.514;2022-10-31T05:12:20;220.37;;;56.70;;
75486;SDS011;64068;44.762;21.514;2022-10-31T05:14:47;223.40;;;54.97;;
75486;SDS011;64068;44.762;21.514;2022-10-31T05:17:13;268.80;;;52.60;;
75486;SDS011;64068;44.762;21.514;2022-10-31T05:19:39;227.57;;;56.83;;
75486;SDS011;64068;44.762;21.514;2022-10-31T05:22:05;204.13;;;57.77;;
75486;SDS011;64068;44.762;21.514;2022-10-31T05:24:31;264.57;;;58.20;;
75486;SDS011;64068;44.762;21.514;2022-10-31T05:26:57;183.60;;;55.53;;
75486;SDS011;64068;44.762;21.514;2022-10-31T05:29:23;198.83;;;54.70;;
75486;SDS011;64068;44.762;21.514;2022-10-31T05:31:50;184.17;;;53.77;;
75486;SDS011;64068;44.762;21.514;2022-10-31T05:34:16;211.13;;;53.33;;
75486;SDS011;64068;44.762;21.514;2022-10-31T05:36:42;202.97;;;52.63;;
75486;SDS011;64068;44.762;21.514;2022-10-31T05:39:08;273.93;;;51.47;;
75486;SDS011;64068;44.762;21.514;2022-10-31T05:41:34;355.23;;;50.17;;
75486;SDS011;64068;44.762;21.514;2022-10-31T05:44:00;446.00;;;51.27;;
75486;SDS011;64068;44.762;21.514;2022-10-31T05:46:26;323.30;;;51.60;;
75486;SDS011;64068;44.762;21.514;2022-10-31T05:48:52;350.10;;;51.43;;
75486;SDS011;64068;44.762;21.514;2022-10-31T05:51:19;305.60;;;61.67;;
75486;SDS011;64068;44.762;21.514;2022-10-31T05:53:45;309.87;;;54.53;;
75486;SDS011;64068;44.762;21.514;2022-10-31T05:56:12;307.27;;;52.60;;
75486;SDS011;64068;44.762;21.514;2022-10-31T05:58:38;397.00;;;52.17;;
75486;SDS011;64068;44.762;21.514;2022-10-31T06:01:04;321.17;;;52.47;;
75486;SDS011;64068;44.762;21.514;2022-10-31T06:03:31;441.13;;;55.53;;
75486;SDS011;64068;44.762;21.514;2022-10-31T06:05:57;380.17;;;56.77;;
75486;SDS011;64068;44.762;21.514;2022-10-31T06:08:23;390.23;;;60.63;;
75486;SDS011;64068;44.762;21.514;2022-10-31T06:10:49;364.53;;;62.10;;
75486;SDS011;64068;44.762;21.514;2022-10-31T06:13:15;288.03;;;71.80;;
75486;SDS011;64068;44.762;21.514;2022-10-31T06:15:41;375.90;;;64.87;;
75486;SDS011;64068;44.762;21.514;2022-10-31T06:18:08;372.17;;;64.13;;
75486;SDS011;64068;44.762;21.514;2022-10-31T06:20:34;312.33;;;66.47;;
75486;SDS011;64068;44.762;21.514;2022-10-31T06:23:00;408.93;;;65.60;;
75486;SDS011;64068;44.762;21.514;2022-10-31T06:25:26;409.27;;;61.90;;
75486;SDS011;64068;44.762;21.514;2022-10-31T06:27:53;406.27;;;66.07;;
75486;SDS011;64068;44.762;21.514;2022-10-31T06:30:19;292.67;;;66.23;;
75486;SDS011;64068;44.762;21.514;2022-10-31T06:32:45;343.37;;;59.37;;
75486;SDS011;64068;44.762;21.514;2022-10-31T06:35:12;271.27;;;58.83;;
75486;SDS011;64068;44.762;21.514;2022-10-31T06:37:38;331.10;;;56.07;;
75486;SDS011;64068;44.762;21.514;2022-10-31T06:40:05;228.13;;;59.90;;
75486;SDS011;64068;44.762;21.514;2022-10-31T06:42:31;212.23;;;53.00;;
75486;SDS011;64068;44.762;21.514;2022-10-31T06:44:57;258.77;;;50.90;;
75486;SDS011;64068;44.762;21.514;2022-10-31T06:47:23;250.73;;;50.60;;
75486;SDS011;64068;44.762;21.514;2022-10-31T06:49:49;279.10;;;47.67;;
75486;SDS011;64068;44.762;21.514;2022-10-31T06:52:15;261.63;;;51.23;;
75486;SDS011;64068;44.762;21.514;2022-10-31T06:54:41;296.43;;;56.43;;
75486;SDS011;64068;44.762;21.514;2022-10-31T06:57:08;323.00;;;56.90;;
75486;SDS011;64068;44.762;21.514;2022-10-31T06:59:34;203.63;;;55.90;;
75486;SDS011;64068;44.762;21.514;2022-10-31T07:02:00;226.37;;;58.97;;
75486;SDS011;64068;44.762;21.514;2022-10-31T07:04:26;205.33;;;53.50;;
75486;SDS011;64068;44.762;21.514;2022-10-31T07:06:52;274.60;;;55.27;;
75486;SDS011;64068;44.762;21.514;2022-10-31T07:09:19;277.93;;;60.70;;
75486;SDS011;64068;44.762;21.514;2022-10-31T07:11:45;318.80;;;67.03;;
75486;SDS011;64068;44.762;21.514;2022-10-31T07:14:11;239.93;;;57.73;;
75486;SDS011;64068;44.762;21.514;2022-10-31T07:16:37;227.10;;;55.03;;
75486;SDS011;64068;44.762;21.514;2022-10-31T07:19:03;303.57;;;62.07;;
75486;SDS011;64068;44.762;21.514;2022-10-31T07:21:29;200.93;;;55.43;;
75486;SDS011;64068;44.762;21.514;2022-10-31T07:23:56;213.53;;;53.17;;
75486;SDS011;64068;44.762;21.514;2022-10-31T07:26:22;194.97;;;52.47;;
75486;SDS011;64068;44.762;21.514;2022-10-31T07:28:48;222.43;;;53.17;;
75486;SDS011;64068;44.762;21.514;2022-10-31T07:31:14;234.70;;;50.03;;
75486;SDS011;64068;44.762;21.514;2022-10-31T07:33:41;194.73;;;49.27;;
75486;SDS011;64068;44.762;21.514;2022-10-31T07:36:07;176.30;;;48.50;;
75486;SDS011;64068;44.762;21.514;2022-10-31T07:38:33;206.70;;;55.77;;
75486;SDS011;64068;44.762;21.514;2022-10-31T07:40:59;168.97;;;53.90;;
75486;SDS011;64068;44.762;21.514;2022-10-31T07:43:25;168.97;;;55.00;;
75486;SDS011;64068;44.762;21.514;2022-10-31T07:45:52;141.77;;;53.43;;
75486;SDS011;64068;44.762;21.514;2022-10-31T07:48:19;129.30;;;53.57;;
75486;SDS011;64068;44.762;21.514;2022-10-31T07:50:45;120.53;;;47.83;;
75486;SDS011;64068;44.762;21.514;2022-10-31T07:53:11;107.57;;;48.17;;
75486;SDS011;64068;44.762;21.514;2022-10-31T07:55:38;131.90;;;47.60;;
75486;SDS011;64068;44.762;21.514;2022-10-31T07:58:05;119.60;;;51.10;;
75486;SDS011;64068;44.762;21.514;2022-10-31T08:00:32;133.93;;;49.97;;
75486;SDS011;64068;44.762;21.514;2022-10-31T08:03:32;123.37;;;45.43;;
75486;SDS011;64068;44.762;21.514;2022-10-31T08:05:51;119.90;;;45.63;;
75486;SDS011;64068;44.762;21.514;2022-10-31T08:08:17;123.97;;;43.90;;
75486;SDS011;64068;44.762;21.514;2022-10-31T08:10:44;114.63;;;39.20;;
75486;SDS011;64068;44.762;21.514;2022-10-31T08:13:11;100.60;;;40.67;;
75486;SDS011;64068;44.762;21.514;2022-10-31T08:15:38;132.10;;;41.67;;
75486;SDS011;64068;44.762;21.514;2022-10-31T08:18:06;134.30;;;42.33;;
75486;SDS011;64068;44.762;21.514;2022-10-31T08:20:36;129.00;;;42.53;;
75486;SDS011;64068;44.762;21.514;2022-10-31T08:23:03;111.60;;;43.83;;
75486;SDS011;64068;44.762;21.514;2022-10-31T08:25:31;109.27;;;43.47;;
75486;SDS011;64068;44.762;21.514;2022-10-31T08:27:57;106.93;;;42.97;;
75486;SDS011;64068;44.762;21.514;2022-10-31T08:30:24;124.53;;;42.97;;
75486;SDS011;64068;44.762;21.514;2022-10-31T08:33:24;120.20;;;43.35;;
75486;SDS011;64068;44.762;21.514;2022-10-31T08:35:43;111.67;;;43.50;;
75486;SDS011;64068;44.762;21.514;2022-10-31T08:38:10;107.82;;;43.80;;
75486;SDS011;64068;44.762;21.514;2022-10-31T08:40:37;113.47;;;46.00;;
75486;SDS011;64068;44.762;21.514;2022-10-31T08:43:04;126.38;;;46.72;;
75486;SDS011;64068;44.762;21.514;2022-10-31T08:45:31;113.90;;;46.37;;
75486;SDS011;64068;44.762;21.514;2022-10-31T08:47:58;134.50;;;51.33;;
75486;SDS011;64068;44.762;21.514;2022-10-31T08:50:25;133.80;;;50.25;;
75486;SDS011;64068;44.762;21.514;2022-10-31T08:52:51;130.77;;;51.73;;
75486;SDS011;64068;44.762;21.514;2022-10-31T08:55:17;129.63;;;55.85;;
75486;SDS011;64068;44.762;21.514;2022-10-31T08:57:43;123.70;;;53.88;;
75486;SDS011;64068;44.762;21.514;2022-10-31T09:00:10;128.20;;;57.08;;
75486;SDS011;64068;44.762;21.514;2022-10-31T09:02:36;128.35;;;52.75;;
75486;SDS011;64068;44.762;21.514;2022-10-31T09:05:03;137.75;;;55.35;;
75486;SDS011;64068;44.762;21.514;2022-10-31T09:07:30;135.13;;;55.92;;
75486;SDS011;64068;44.762;21.514;2022-10-31T09:09:56;135.68;;;56.30;;
75486;SDS011;64068;44.762;21.514;2022-10-31T09:12:22;130.77;;;55.40;;
75486;SDS011;64068;44.762;21.514;2022-10-31T09:14:49;122.32;;;54.83;;
75486;SDS011;64068;44.762;21.514;2022-10-31T09:17:15;135.23;;;62.83;;
75486;SDS011;64068;44.762;21.514;2022-10-31T09:19:41;180.30;;;89.22;;
75486;SDS011;64068;44.762;21.514;2022-10-31T09:22:07;139.02;;;56.88;;
75486;SDS011;64068;44.762;21.514;2022-10-31T09:24:33;137.20;;;56.90;;
75486;SDS011;64068;44.762;21.514;2022-10-31T09:27:00;125.93;;;53.45;;
75486;SDS011;64068;44.762;21.514;2022-10-31T09:29:26;131.98;;;53.38;;
75486;SDS011;64068;44.762;21.514;2022-10-31T09:31:52;133.30;;;54.88;;
75486;SDS011;64068;44.762;21.514;2022-10-31T09:34:18;131.88;;;57.08;;
75486;SDS011;64068;44.762;21.514;2022-10-31T09:36:44;127.45;;;53.05;;
75486;SDS011;64068;44.762;21.514;2022-10-31T09:39:11;128.65;;;53.08;;
75486;SDS011;64068;44.762;21.514;2022-10-31T09:51:59;116.30;;;54.15;;
75486;SDS011;64068;44.762;21.514;2022-10-31T09:57:13;120.10;;;55.80;;
75486;SDS011;64068;44.762;21.514;2022-10-31T09:59:40;128.05;;;58.47;;
75486;SDS011;64068;44.762;21.514;2022-10-31T10:05:05;124.47;;;61.03;;
75486;SDS011;64068;44.762;21.514;2022-10-31T10:10:02;135.52;;;66.55;;
75486;SDS011;64068;44.762;21.514;2022-10-31T10:17:48;119.40;;;59.83;;
75486;SDS011;64068;44.762;21.514;2022-10-31T10:25:34;89.53;;;52.17;;
75486;SDS011;64068;44.762;21.514;2022-10-31T10:30:50;85.35;;;47.30;;
75486;SDS011;64068;44.762;21.514;2022-10-31T10:33:20;73.72;;;45.40;;
75486;SDS011;64068;44.762;21.514;2022-10-31T10:35:55;74.05;;;45.67;;
75486;SDS011;64068;44.762;21.514;2022-10-31T10:41:15;67.57;;;43.90;;
75486;SDS011;64068;44.762;21.514;2022-10-31T10:43:42;61.97;;;42.25;;
75486;SDS011;64068;44.762;21.514;2022-10-31T10:49:15;63.47;;;42.08;;
75486;SDS011;64068;44.762;21.514;2022-10-31T10:52:26;59.92;;;40.50;;
75486;SDS011;64068;44.762;21.514;2022-10-31T10:54:55;60.33;;;39.42;;
75486;SDS011;64068;44.762;21.514;2022-10-31T10:59:48;55.00;;;37.08;;
75486;SDS011;64068;44.762;21.514;2022-10-31T11:02:18;49.53;;;35.03;;
75486;SDS011;64068;44.762;21.514;2022-10-31T11:04:45;48.47;;;33.53;;
75486;SDS011;64068;44.762;21.514;2022-10-31T11:07:13;45.38;;;34.15;;
75486;SDS011;64068;44.762;21.514;2022-10-31T11:09:39;50.10;;;34.42;;
75486;SDS011;64068;44.762;21.514;2022-10-31T11:12:09;45.42;;;33.63;;
75486;SDS011;64068;44.762;21.514;2022-10-31T11:14:46;49.10;;;35.60;;
75486;SDS011;64068;44.762;21.514;2022-10-31T11:17:33;45.40;;;35.25;;
75486;SDS011;64068;44.762;21.514;2022-10-31T11:20:00;48.95;;;37.88;;
75486;SDS011;64068;44.762;21.514;2022-10-31T11:22:27;53.38;;;38.20;;
75486;SDS011;64068;44.762;21.514;2022-10-31T11:24:53;49.63;;;38.70;;
75486;SDS011;64068;44.762;21.514;2022-10-31T11:27:23;49.20;;;40.03;;
75486;SDS011;64068;44.762;21.514;2022-10-31T11:32:17;52.85;;;40.38;;
75486;SDS011;64068;44.762;21.514;2022-10-31T11:34:45;54.67;;;42.97;;
75486;SDS011;64068;44.762;21.514;2022-10-31T11:37:13;52.90;;;43.60;;
75486;SDS011;64068;44.762;21.514;2022-10-31T11:39:41;59.35;;;44.00;;
75486;SDS011;64068;44.762;21.514;2022-10-31T11:42:08;58.60;;;46.53;;
75486;SDS011;64068;44.762;21.514;2022-10-31T11:44:34;51.25;;;43.42;;
75486;SDS011;64068;44.762;21.514;2022-10-31T11:47:02;47.80;;;38.67;;
75486;SDS011;64068;44.762;21.514;2022-10-31T11:49:38;47.88;;;38.95;;
75486;SDS011;64068;44.762;21.514;2022-10-31T11:52:15;43.78;;;37.72;;
75486;SDS011;64068;44.762;21.514;2022-10-31T11:57:22;49.35;;;36.03;;
75486;SDS011;64068;44.762;21.514;2022-10-31T11:59:52;55.88;;;37.78;;
75486;SDS011;64068;44.762;21.514;2022-10-31T12:02:19;49.55;;;38.45;;
75486;SDS011;64068;44.762;21.514;2022-10-31T12:04:48;52.20;;;40.47;;
75486;SDS011;64068;44.762;21.514;2022-10-31T12:07:14;46.58;;;36.85;;
75486;SDS011;64068;44.762;21.514;2022-10-31T12:09:41;51.78;;;38.42;;
75486;SDS011;64068;44.762;21.514;2022-10-31T12:12:10;43.78;;;35.40;;
75486;SDS011;64068;44.762;21.514;2022-10-31T12:22:04;44.13;;;34.72;;
75486;SDS011;64068;44.762;21.514;2022-10-31T12:39:42;46.90;;;37.00;;
75486;SDS011;64068;44.762;21.514;2022-10-31T12:54:37;41.63;;;33.05;;
75486;SDS011;64068;44.762;21.514;2022-10-31T12:57:17;44.30;;;33.63;;
75486;SDS011;64068;44.762;21.514;2022-10-31T12:59:49;38.67;;;33.33;;
75486;SDS011;64068;44.762;21.514;2022-10-31T13:02:21;42.13;;;33.28;;
75486;SDS011;64068;44.762;21.514;2022-10-31T13:12:26;51.78;;;39.65;;
75486;SDS011;64068;44.762;21.514;2022-10-31T13:14:57;57.90;;;41.90;;
75486;SDS011;64068;44.762;21.514;2022-10-31T13:17:30;53.53;;;41.00;;
75486;SDS011;64068;44.762;21.514;2022-10-31T13:20:21;51.67;;;41.20;;
75486;SDS011;64068;44.762;21.514;2022-10-31T13:22:49;51.50;;;42.03;;
75486;SDS011;64068;44.762;21.514;2022-10-31T13:25:23;53.83;;;41.70;;
75486;SDS011;64068;44.762;21.514;2022-10-31T13:30:39;60.72;;;44.25;;
75486;SDS011;64068;44.762;21.514;2022-10-31T13:33:12;62.45;;;45.50;;
75486;SDS011;64068;44.762;21.514;2022-10-31T13:43:59;64.80;;;44.65;;
75486;SDS011;64068;44.762;21.514;2022-10-31T13:48:58;71.30;;;48.00;;
75486;SDS011;64068;44.762;21.514;2022-10-31T13:51:29;68.45;;;47.53;;
75486;SDS011;64068;44.762;21.514;2022-10-31T13:56:22;72.10;;;47.45;;
75486;SDS011;64068;44.762;21.514;2022-10-31T14:01:27;67.90;;;45.97;;
75486;SDS011;64068;44.762;21.514;2022-10-31T14:04:07;65.55;;;44.78;;
75486;SDS011;64068;44.762;21.514;2022-10-31T14:07:16;86.65;;;47.35;;
75486;SDS011;64068;44.762;21.514;2022-10-31T14:09:27;80.20;;;53.20;;
75486;SDS011;64068;44.762;21.514;2022-10-31T14:11:54;84.78;;;50.30;;
75486;SDS011;64068;44.762;21.514;2022-10-31T14:14:21;72.82;;;48.10;;
75486;SDS011;64068;44.762;21.514;2022-10-31T14:16:53;72.43;;;47.63;;
75486;SDS011;64068;44.762;21.514;2022-10-31T14:19:20;71.32;;;49.65;;
75486;SDS011;64068;44.762;21.514;2022-10-31T14:21:47;75.45;;;48.58;;
75486;SDS011;64068;44.762;21.514;2022-10-31T14:24:35;74.63;;;49.13;;
75486;SDS011;64068;44.762;21.514;2022-10-31T14:27:46;74.70;;;47.67;;
75486;SDS011;64068;44.762;21.514;2022-10-31T14:29:46;80.25;;;49.45;;
75486;SDS011;64068;44.762;21.514;2022-10-31T14:34:42;72.43;;;49.58;;
75486;SDS011;64068;44.762;21.514;2022-10-31T14:42:10;82.70;;;50.60;;
75486;SDS011;64068;44.762;21.514;2022-10-31T14:52:29;75.25;;;49.58;;
75486;SDS011;64068;44.762;21.514;2022-10-31T14:54:56;74.63;;;48.72;;
75486;SDS011;64068;44.762;21.514;2022-10-31T14:57:29;75.90;;;50.38;;
75486;SDS011;64068;44.762;21.514;2022-10-31T15:00:00;81.20;;;51.55;;
75486;SDS011;64068;44.762;21.514;2022-10-31T15:04:55;88.57;;;53.92;;
75486;SDS011;64068;44.762;21.514;2022-10-31T15:07:24;85.40;;;53.88;;
75486;SDS011;64068;44.762;21.514;2022-10-31T15:10:04;85.78;;;54.13;;
75486;SDS011;64068;44.762;21.514;2022-10-31T15:12:32;90.38;;;53.78;;
75486;SDS011;64068;44.762;21.514;2022-10-31T15:15:20;86.22;;;54.03;;
75486;SDS011;64068;44.762;21.514;2022-10-31T15:17:45;92.10;;;58.38;;
75486;SDS011;64068;44.762;21.514;2022-10-31T15:20:21;87.25;;;55.55;;
75486;SDS011;64068;44.762;21.514;2022-10-31T15:22:48;82.75;;;53.10;;
75486;SDS011;64068;44.762;21.514;2022-10-31T15:25:19;87.97;;;56.08;;
75486;SDS011;64068;44.762;21.514;2022-10-31T15:27:46;96.50;;;56.93;;
75486;SDS011;64068;44.762;21.514;2022-10-31T15:30:16;88.15;;;56.75;;
75486;SDS011;64068;44.762;21.514;2022-10-31T15:32:43;93.90;;;56.58;;
75486;SDS011;64068;44.762;21.514;2022-10-31T15:35:14;96.07;;;59.33;;
75486;SDS011;64068;44.762;21.514;2022-10-31T15:37:44;98.47;;;59.28;;
75486;SDS011;64068;44.762;21.514;2022-10-31T15:40:17;96.15;;;61.38;;
75486;SDS011;64068;44.762;21.514;2022-10-31T15:42:46;99.78;;;61.88;;
75486;SDS011;64068;44.762;21.514;2022-10-31T15:47:45;99.28;;;63.33;;
75486;SDS011;64068;44.762;21.514;2022-10-31T15:50:21;107.10;;;64.60;;
75486;SDS011;64068;44.762;21.514;2022-10-31T15:53:00;103.05;;;65.20;;
75486;SDS011;64068;44.762;21.514;2022-10-31T15:55:28;111.72;;;69.28;;
75486;SDS011;64068;44.762;21.514;2022-10-31T15:57:56;115.72;;;68.13;;
75486;SDS011;64068;44.762;21.514;2022-10-31T16:00:30;114.18;;;69.43;;
75486;SDS011;64068;44.762;21.514;2022-10-31T16:05:51;122.88;;;72.75;;
75486;SDS011;64068;44.762;21.514;2022-10-31T16:08:25;119.00;;;72.22;;
75486;SDS011;64068;44.762;21.514;2022-10-31T16:10:52;130.18;;;79.40;;
75486;SDS011;64068;44.762;21.514;2022-10-31T16:13:20;118.38;;;74.70;;
75486;SDS011;64068;44.762;21.514;2022-10-31T16:15:56;127.28;;;77.45;;
75486;SDS011;64068;44.762;21.514;2022-10-31T16:18:24;129.32;;;76.30;;
75486;SDS011;64068;44.762;21.514;2022-10-31T16:20:51;129.52;;;78.47;;
75486;SDS011;64068;44.762;21.514;2022-10-31T16:23:19;132.32;;;81.30;;
75486;SDS011;64068;44.762;21.514;2022-10-31T16:25:46;135.27;;;81.43;;
75486;SDS011;64068;44.762;21.514;2022-10-31T16:28:20;130.57;;;80.65;;
75486;SDS011;64068;44.762;21.514;2022-10-31T16:30:56;134.05;;;81.53;;
75486;SDS011;64068;44.762;21.514;2022-10-31T16:33:24;134.55;;;82.45;;
75486;SDS011;64068;44.762;21.514;2022-10-31T16:35:51;140.55;;;83.18;;
75486;SDS011;64068;44.762;21.514;2022-10-31T16:38:17;144.38;;;87.07;;
75486;SDS011;64068;44.762;21.514;2022-10-31T16:40:43;144.00;;;85.18;;
75486;SDS011;64068;44.762;21.514;2022-10-31T16:43:11;153.55;;;88.68;;
75486;SDS011;64068;44.762;21.514;2022-10-31T16:45:41;147.55;;;86.53;;